Historyczne dane pomiarowe

Dodano dane terminowe – wersja testowa.

Dane z okresu 1951-2019

Wersja bazy: 1.34 [2019-03-16, lista zmian], aktualizacja planowana na 2019-04-15

Dane meteo z obszaru Polski uzyskane na podstawie danych udostępnionych przez Instytut Meteorologii i Gospodarki Wodnej – Państwowy Instytut Badawczy.

 

Wybierz Datę:    

       

TemperaturaWilgotnośćWiatrCiśnienieOpadyŚniegCzas trwania zjawisk
 Stacja t tx tn tng RH VA  wxwx mslp ppp RRR   cm mm wxwxwxwxwxwxwx
1987-07-08 21.3 27.2 12.7--- 1.7 2.7---- 7.6------------
1987-07-07 19.1 26.0 8.7--- 0.0 2.7---- 0.0------------
1987-07-06 17.0 22.5 8.5--- 0.0 3.0---- 0.0------------
1987-07-05 16.8 20.5 11.0--- 0.7 2.0---- 0.0------------
1987-07-04 14.6 19.0 9.0--- 2.3 3.3---- 0.0------------
1987-07-03 14.7 20.6 8.0--- 1.7 4.0---- 0.0------------
1987-07-02 17.1 20.5 12.9--- 1.0 1.3---- 0.0------------
1987-07-01 24.3 30.0 20.2--- 3.3 2.3---- 21.1------------
1987-06-30 20.5 24.8 16.1--- 4.3 2.0---- 0.0------------
1987-06-29 14.6 20.0 6.5--- 5.3 2.7---- 2.2------------
1987-06-28 13.3 16.1 9.5--- 5.0 3.0---- 2.2------------
1987-06-27 16.0 17.8 14.5--- 6.0 1.0---- 7.2------------
1987-06-26 14.6 19.8 6.0--- 7.0 2.7---- 0.0------------
1987-06-25 11.7 15.1 8.7--- 6.7 2.0---- 16.2------------
1987-06-24 15.1 18.2 13.1--- 4.7 1.7---- 2.2------------
1987-06-23 15.0 21.3 9.0--- 5.3 1.3---- 6.0------------
1987-06-22 18.0 24.5 7.7--- 2.0 1.0---- 0.0------------
1987-06-21 17.4 23.2 7.5--- 1.7 1.3---- 0.0------------
1987-06-20 14.5 19.8 7.6--- 7.0 1.7---- 0.0------------
1987-06-19 11.5 15.0 5.5--- 5.3 2.7---- 0.0------------
1987-06-18 13.0 17.6 5.1--- 2.0 3.3---- 0.0------------
1987-06-17 11.8 14.0 10.2--- 7.0 3.0---- 0.0------------
1987-06-16 15.1 20.7 10.2--- 7.3 2.7---- 1.9------------
1987-06-15 17.6 21.5 13.5--- 4.0 2.7---- 29.7------------
1987-06-14 15.6 22.5 6.7--- 6.3 1.7---- 8.6------------
1987-06-13 13.2 19.0 11.0--- 7.0 2.3---- 0.5------------
1987-06-12 18.3 24.5 12.0--- 6.3 2.3---- 3.8------------
1987-06-11 15.5 21.5 11.1--- 1.0 1.3---- 0.0------------
1987-06-10 15.4 20.0 11.5--- 7.0 2.0---- 0.0------------
1987-06-09 14.4 20.3 11.0--- 5.3 2.3---- 2.6------------
1987-06-08 17.8 21.7 14.0--- 6.0 1.3---- 6.1------------
1987-06-07 15.7 21.5 6.0--- 5.3 2.0---- 2.4------------
1987-06-06 13.2 15.0 9.5--- 7.7 1.7---- 1.6------------
1987-06-05 13.3 16.4 9.7--- 8.0 1.7---- 20.5------------
1987-06-04 13.0 18.0 4.5--- 4.7 1.0---- 0.0------------
1987-06-03 9.7 15.0 3.2--- 1.7 2.0---- 1.6------------
1987-06-02 8.0 13.7 1.0--- 5.3 2.0---- 0.0------------
1987-06-01 7.1 9.5 5.5--- 6.0 2.3---- 0.4------------
1987-05-31 7.3 9.6 5.1--- 7.3 1.0---- 0.0------------
1987-05-30 6.6 9.2 5.5--- 8.0 3.0---- 0.0------------
1987-05-29 9.5 12.0 8.0--- 8.0 2.0---- 0.1------------
1987-05-28 13.0 20.3 7.3--- 6.3 3.7---- 9.7------------
1987-05-27 11.5 16.8 4.0--- 2.3 2.7---- 0.0------------
1987-05-26 10.0 18.2 1.5--- 0.0 4.0---- 0.0------------
1987-05-25 9.0 13.6 3.5--- 0.7 4.3---- 0.0------------
1987-05-24 10.8 16.6 4.2--- 2.7 3.3---- 0.0------------
1987-05-23 12.4 16.7 8.0--- 5.0 3.7---- 0.0------------
1987-05-22 9.4 13.5 5.5--- 8.0 3.0---- 0.0------------
1987-05-21 9.7 15.0 5.5--- 4.3 4.0---- 0.0------------
1987-05-20 11.8 16.5 8.0--- 3.7 1.0---- 0.0------------
1987-05-19 13.2 17.0 10.0--- 7.3 3.0---- 0.4------------
1987-05-18 11.3 17.3 5.0--- 6.0 2.3---- 0.0------------
1987-05-17 9.5 11.7 7.8--- 7.7 2.7---- 1.1------------
1987-05-16 10.2 13.0 6.0--- 5.3 3.7---- 13.4------------
1987-05-15 8.7 14.0 3.7--- 3.7 2.3---- 0.0------------
1987-05-14 8.0 12.3 6.0--- 8.0 4.3---- 24.6------------
1987-05-13 13.3 16.5 12.3--- 7.0 2.3---- 18.7------------
1987-05-12 11.0 16.5 4.5--- 3.7 4.0---- 0.0------------
1987-05-11 7.3 10.0 4.3--- 7.3 4.3---- 0.3------------
1987-05-10 11.9 20.5 6.0--- 4.7 5.7---- 6.9------------
455.2 ms

 

Źródłem pochodzenia danych jest Instytut Meteorologii i Gospodarki Wodnej – Państwowy Instytut Badawczy. Dane Instytutu Meteorologii i Gospodarki Wodnej – Państwowego Instytutu Badawczego zostały przetworzone.

Dane źródłowe można odnaleźć na stronie https://dane.imgw.pl